sensor_id;sensor_type;location;lat;lon;timestamp;pressure;altitude;pressure_sealevel;temperature;humidity
73558;BME280;61829;53.286;10.434;2023-05-23T00:00:29;100991.19;;;16.47;96.65
73558;BME280;61829;53.286;10.434;2023-05-23T00:03:18;100990.34;;;16.47;97.09
73558;BME280;61829;53.286;10.434;2023-05-23T00:05:47;101002.06;;;16.47;98.51
73558;BME280;61829;53.286;10.434;2023-05-23T00:08:13;100992.63;;;16.50;98.34
73558;BME280;61829;53.286;10.434;2023-05-23T00:10:40;100991.59;;;16.51;98.52
73558;BME280;61829;53.286;10.434;2023-05-23T00:13:06;100997.03;;;16.51;99.12
73558;BME280;61829;53.286;10.434;2023-05-23T00:15:38;101008.75;;;16.51;99.65
73558;BME280;61829;53.286;10.434;2023-05-23T00:18:07;100996.22;;;16.50;100.00
73558;BME280;61829;53.286;10.434;2023-05-23T00:20:34;101001.66;;;16.50;100.00
73558;BME280;61829;53.286;10.434;2023-05-23T00:23:01;100987.19;;;16.50;100.00
73558;BME280;61829;53.286;10.434;2023-05-23T00:25:28;100987.63;;;16.47;100.00
73558;BME280;61829;53.286;10.434;2023-05-23T00:27:59;100985.34;;;16.44;99.84
73558;BME280;61829;53.286;10.434;2023-05-23T00:30:26;100979.28;;;16.42;100.00
73558;BME280;61829;53.286;10.434;2023-05-23T00:32:52;100980.59;;;16.39;100.00
73558;BME280;61829;53.286;10.434;2023-05-23T00:35:19;100997.13;;;16.37;100.00
73558;BME280;61829;53.286;10.434;2023-05-23T00:37:46;100991.88;;;16.36;100.00
73558;BME280;61829;53.286;10.434;2023-05-23T00:40:12;100998.63;;;16.33;100.00
73558;BME280;61829;53.286;10.434;2023-05-23T00:42:38;100996.31;;;16.30;100.00
73558;BME280;61829;53.286;10.434;2023-05-23T00:45:04;100994.88;;;16.28;100.00
73558;BME280;61829;53.286;10.434;2023-05-23T00:47:31;100996.34;;;16.24;100.00
73558;BME280;61829;53.286;10.434;2023-05-23T00:49:57;101000.34;;;16.21;100.00
73558;BME280;61829;53.286;10.434;2023-05-23T00:52:23;100995.34;;;16.18;100.00
73558;BME280;61829;53.286;10.434;2023-05-23T00:54:49;100996.59;;;16.15;100.00
73558;BME280;61829;53.286;10.434;2023-05-23T00:57:15;100999.75;;;16.12;100.00
73558;BME280;61829;53.286;10.434;2023-05-23T01:03:22;100993.94;;;16.09;100.00
73558;BME280;61829;53.286;10.434;2023-05-23T01:05:54;100996.84;;;16.07;100.00
73558;BME280;61829;53.286;10.434;2023-05-23T01:08:21;100994.38;;;16.06;100.00
73558;BME280;61829;53.286;10.434;2023-05-23T01:10:46;100986.22;;;16.06;100.00
73558;BME280;61829;53.286;10.434;2023-05-23T01:22:07;100981.22;;;16.03;100.00
73558;BME280;61829;53.286;10.434;2023-05-23T01:25:04;100977.88;;;16.01;100.00
73558;BME280;61829;53.286;10.434;2023-05-23T01:30:06;100966.16;;;16.00;100.00
73558;BME280;61829;53.286;10.434;2023-05-23T01:32:34;100977.25;;;15.99;100.00
73558;BME280;61829;53.286;10.434;2023-05-23T01:35:02;100979.13;;;15.98;100.00
73558;BME280;61829;53.286;10.434;2023-05-23T01:37:28;100981.66;;;16.00;100.00
73558;BME280;61829;53.286;10.434;2023-05-23T01:39:54;100978.69;;;16.01;100.00
73558;BME280;61829;53.286;10.434;2023-05-23T01:42:20;100977.66;;;16.02;100.00
73558;BME280;61829;53.286;10.434;2023-05-23T01:44:46;100976.81;;;16.02;100.00
73558;BME280;61829;53.286;10.434;2023-05-23T01:47:12;100970.53;;;16.01;100.00
73558;BME280;61829;53.286;10.434;2023-05-23T01:49:40;100980.97;;;16.04;100.00
73558;BME280;61829;53.286;10.434;2023-05-23T01:52:07;100978.06;;;16.06;100.00
73558;BME280;61829;53.286;10.434;2023-05-23T01:54:36;100978.91;;;16.06;100.00
73558;BME280;61829;53.286;10.434;2023-05-23T01:57:02;100973.44;;;16.06;100.00
73558;BME280;61829;53.286;10.434;2023-05-23T01:59:29;100972.63;;;16.06;100.00
73558;BME280;61829;53.286;10.434;2023-05-23T02:01:55;100979.72;;;16.07;100.00
73558;BME280;61829;53.286;10.434;2023-05-23T02:04:21;100976.78;;;16.08;100.00
73558;BME280;61829;53.286;10.434;2023-05-23T02:06:46;100979.53;;;16.08;100.00
73558;BME280;61829;53.286;10.434;2023-05-23T02:09:12;100977.63;;;16.09;100.00
73558;BME280;61829;53.286;10.434;2023-05-23T02:11:38;100976.78;;;16.08;100.00
73558;BME280;61829;53.286;10.434;2023-05-23T02:14:04;100979.28;;;16.10;100.00
73558;BME280;61829;53.286;10.434;2023-05-23T02:16:29;100979.28;;;16.10;100.00
73558;BME280;61829;53.286;10.434;2023-05-23T02:18:57;100981.78;;;16.11;100.00
73558;BME280;61829;53.286;10.434;2023-05-23T02:21:22;100980.09;;;16.10;100.00
73558;BME280;61829;53.286;10.434;2023-05-23T02:23:49;100983.88;;;16.09;100.00
73558;BME280;61829;53.286;10.434;2023-05-23T02:26:15;100979.53;;;16.08;100.00
73558;BME280;61829;53.286;10.434;2023-05-23T02:28:41;100983.69;;;16.11;100.00
73558;BME280;61829;53.286;10.434;2023-05-23T02:31:06;100983.06;;;16.09;100.00
73558;BME280;61829;53.286;10.434;2023-05-23T02:33:32;100983.25;;;16.07;100.00
73558;BME280;61829;53.286;10.434;2023-05-23T02:35:58;100984.94;;;16.08;100.00
73558;BME280;61829;53.286;10.434;2023-05-23T02:38:36;100985.78;;;16.09;100.00
73558;BME280;61829;53.286;10.434;2023-05-23T02:41:03;100994.38;;;16.06;100.00
73558;BME280;61829;53.286;10.434;2023-05-23T02:43:29;100983.94;;;16.03;100.00
73558;BME280;61829;53.286;10.434;2023-05-23T02:45:54;100992.28;;;16.01;100.00
73558;BME280;61829;53.286;10.434;2023-05-23T02:48:20;100991.06;;;15.97;100.00
73558;BME280;61829;53.286;10.434;2023-05-23T02:50:46;100985.44;;;15.92;100.00
73558;BME280;61829;53.286;10.434;2023-05-23T02:53:12;100986.50;;;15.91;100.00
73558;BME280;61829;53.286;10.434;2023-05-23T02:55:37;100989.22;;;15.91;100.00
73558;BME280;61829;53.286;10.434;2023-05-23T02:58:04;100990.50;;;15.88;100.00
73558;BME280;61829;53.286;10.434;2023-05-23T03:00:30;100986.91;;;15.88;100.00
73558;BME280;61829;53.286;10.434;2023-05-23T03:02:57;100987.97;;;15.87;100.00
73558;BME280;61829;53.286;10.434;2023-05-23T03:05:22;100987.97;;;15.87;100.00
73558;BME280;61829;53.286;10.434;2023-05-23T03:07:48;100990.28;;;15.83;100.00
73558;BME280;61829;53.286;10.434;2023-05-23T03:10:16;100995.34;;;15.80;100.00
73558;BME280;61829;53.286;10.434;2023-05-23T03:12:43;100998.25;;;15.78;100.00
73558;BME280;61829;53.286;10.434;2023-05-23T03:15:09;101004.31;;;15.74;100.00
73558;BME280;61829;53.286;10.434;2023-05-23T03:17:35;100995.78;;;15.63;100.00
73558;BME280;61829;53.286;10.434;2023-05-23T03:20:01;101008.53;;;15.56;100.00
73558;BME280;61829;53.286;10.434;2023-05-23T03:22:29;101002.50;;;15.54;100.00
73558;BME280;61829;53.286;10.434;2023-05-23T03:24:55;101005.41;;;15.53;100.00
73558;BME280;61829;53.286;10.434;2023-05-23T03:27:21;101003.13;;;15.49;100.00
73558;BME280;61829;53.286;10.434;2023-05-23T03:29:47;100991.22;;;15.50;100.00
73558;BME280;61829;53.286;10.434;2023-05-23T03:32:13;100995.41;;;15.46;100.00
73558;BME280;61829;53.286;10.434;2023-05-23T03:34:39;100990.41;;;15.43;100.00
73558;BME280;61829;53.286;10.434;2023-05-23T03:37:05;100996.66;;;15.44;100.00
73558;BME280;61829;53.286;10.434;2023-05-23T03:39:30;100992.28;;;15.43;100.00
73558;BME280;61829;53.286;10.434;2023-05-23T03:41:59;100997.91;;;15.41;100.00
73558;BME280;61829;53.286;10.434;2023-05-23T03:44:24;100995.41;;;15.40;100.00
73558;BME280;61829;53.286;10.434;2023-05-23T03:46:51;101006.25;;;15.40;100.00
73558;BME280;61829;53.286;10.434;2023-05-23T03:49:17;101001.06;;;15.38;100.00
73558;BME280;61829;53.286;10.434;2023-05-23T03:51:43;100997.94;;;15.35;99.77
73558;BME280;61829;53.286;10.434;2023-05-23T03:54:08;100991.06;;;15.32;100.00
73558;BME280;61829;53.286;10.434;2023-05-23T03:56:34;100993.97;;;15.31;100.00
73558;BME280;61829;53.286;10.434;2023-05-23T03:59:00;100989.59;;;15.30;100.00
73558;BME280;61829;53.286;10.434;2023-05-23T04:01:26;100994.19;;;15.29;100.00
73558;BME280;61829;53.286;10.434;2023-05-23T04:03:52;100995.66;;;15.25;100.00
73558;BME280;61829;53.286;10.434;2023-05-23T04:06:18;100991.72;;;15.21;100.00
73558;BME280;61829;53.286;10.434;2023-05-23T04:08:44;100994.63;;;15.19;100.00
73558;BME280;61829;53.286;10.434;2023-05-23T04:11:10;100992.31;;;15.16;100.00
73558;BME280;61829;53.286;10.434;2023-05-23T04:13:36;100997.56;;;15.18;100.00
73558;BME280;61829;53.286;10.434;2023-05-23T04:16:03;100998.59;;;15.17;100.00
73558;BME280;61829;53.286;10.434;2023-05-23T04:18:30;101001.31;;;15.17;100.00
73558;BME280;61829;53.286;10.434;2023-05-23T04:20:59;101003.41;;;15.15;100.00
73558;BME280;61829;53.286;10.434;2023-05-23T04:23:24;100996.72;;;15.11;100.00
73558;BME280;61829;53.286;10.434;2023-05-23T04:25:51;101000.09;;;15.06;100.00
73558;BME280;61829;53.286;10.434;2023-05-23T04:28:17;100993.59;;;15.07;100.00
73558;BME280;61829;53.286;10.434;2023-05-23T04:30:43;100995.25;;;15.08;100.00
73558;BME280;61829;53.286;10.434;2023-05-23T04:33:09;100997.78;;;15.10;100.00
73558;BME280;61829;53.286;10.434;2023-05-23T04:35:36;100991.72;;;15.08;100.00
73558;BME280;61829;53.286;10.434;2023-05-23T04:38:05;100988.81;;;15.09;100.00
73558;BME280;61829;53.286;10.434;2023-05-23T04:40:31;100998.41;;;15.05;99.36
73558;BME280;61829;53.286;10.434;2023-05-23T04:42:57;100994.63;;;14.99;100.00
73558;BME280;61829;53.286;10.434;2023-05-23T04:45:23;100996.53;;;14.99;100.00
73558;BME280;61829;53.286;10.434;2023-05-23T04:47:51;100997.16;;;15.01;100.00
73558;BME280;61829;53.286;10.434;2023-05-23T04:50:19;100991.09;;;14.99;100.00
73558;BME280;61829;53.286;10.434;2023-05-23T04:52:47;100992.16;;;14.98;100.00
73558;BME280;61829;53.286;10.434;2023-05-23T04:55:13;100991.09;;;14.99;100.00
73558;BME280;61829;53.286;10.434;2023-05-23T04:57:41;100992.16;;;14.98;100.00
73558;BME280;61829;53.286;10.434;2023-05-23T05:00:08;100990.91;;;15.00;100.00
73558;BME280;61829;53.286;10.434;2023-05-23T05:02:37;100997.34;;;14.99;99.33
73558;BME280;61829;53.286;10.434;2023-05-23T05:05:04;101002.16;;;14.97;99.50
73558;BME280;61829;53.286;10.434;2023-05-23T05:07:30;101001.31;;;14.97;99.28
73558;BME280;61829;53.286;10.434;2023-05-23T05:09:56;100991.31;;;14.91;98.59
73558;BME280;61829;53.286;10.434;2023-05-23T05:12:21;101010.09;;;14.86;98.25
73558;BME280;61829;53.286;10.434;2023-05-23T05:14:47;101009.06;;;14.87;99.04
73558;BME280;61829;53.286;10.434;2023-05-23T05:17:13;101013.44;;;14.88;98.57
73558;BME280;61829;53.286;10.434;2023-05-23T05:19:39;101008.25;;;14.86;98.59
73558;BME280;61829;53.286;10.434;2023-05-23T05:22:05;101017.81;;;14.82;98.21
73558;BME280;61829;53.286;10.434;2023-05-23T05:24:32;101020.75;;;14.80;98.32
73558;BME280;61829;53.286;10.434;2023-05-23T05:26:58;101022.41;;;14.75;98.05
73558;BME280;61829;53.286;10.434;2023-05-23T05:29:24;101023.84;;;14.77;98.94
73558;BME280;61829;53.286;10.434;2023-05-23T05:31:51;101018.84;;;14.74;98.92
73558;BME280;61829;53.286;10.434;2023-05-23T05:34:17;101025.97;;;14.75;99.12
73558;BME280;61829;53.286;10.434;2023-05-23T05:36:42;101022.19;;;14.76;98.58
73558;BME280;61829;53.286;10.434;2023-05-23T05:39:13;101013.63;;;14.79;98.85
73558;BME280;61829;53.286;10.434;2023-05-23T05:41:38;101020.13;;;14.78;98.20
73558;BME280;61829;53.286;10.434;2023-05-23T05:44:05;101022.19;;;14.83;98.61
73558;BME280;61829;53.286;10.434;2023-05-23T05:46:31;101024.91;;;14.83;98.50
73558;BME280;61829;53.286;10.434;2023-05-23T05:48:57;101025.97;;;14.82;97.72
73558;BME280;61829;53.286;10.434;2023-05-23T05:51:23;101017.00;;;14.81;98.37
73558;BME280;61829;53.286;10.434;2023-05-23T05:53:49;101026.59;;;14.84;98.15
73558;BME280;61829;53.286;10.434;2023-05-23T05:56:15;101034.09;;;14.82;98.54
73558;BME280;61829;53.286;10.434;2023-05-23T05:58:41;101025.75;;;14.84;98.97
73558;BME280;61829;53.286;10.434;2023-05-23T06:01:07;101037.03;;;14.80;98.69
73558;BME280;61829;53.286;10.434;2023-05-23T06:03:33;101029.72;;;14.81;98.37
73558;BME280;61829;53.286;10.434;2023-05-23T06:05:58;101031.19;;;14.84;98.57
73558;BME280;61829;53.286;10.434;2023-05-23T06:08:24;101030.13;;;14.85;98.80
73558;BME280;61829;53.286;10.434;2023-05-23T06:10:50;101030.13;;;14.85;98.69
73558;BME280;61829;53.286;10.434;2023-05-23T06:13:16;101023.66;;;14.86;98.75
73558;BME280;61829;53.286;10.434;2023-05-23T06:15:42;101035.97;;;14.88;98.80
73558;BME280;61829;53.286;10.434;2023-05-23T06:18:18;101034.94;;;14.89;98.85
73558;BME280;61829;53.286;10.434;2023-05-23T06:20:44;101033.06;;;14.90;98.14
73558;BME280;61829;53.286;10.434;2023-05-23T06:23:09;101031.38;;;14.89;98.42
73558;BME280;61829;53.286;10.434;2023-05-23T06:25:35;101034.09;;;14.89;98.68
73558;BME280;61829;53.286;10.434;2023-05-23T06:28:38;101028.88;;;14.87;97.87
73558;BME280;61829;53.286;10.434;2023-05-23T06:31:04;101025.13;;;14.88;98.14
73558;BME280;61829;53.286;10.434;2023-05-23T06:33:31;101034.09;;;14.89;97.92
73558;BME280;61829;53.286;10.434;2023-05-23T06:35:57;101042.44;;;14.87;98.36
73558;BME280;61829;53.286;10.434;2023-05-23T06:38:28;101034.94;;;14.89;98.85
73558;BME280;61829;53.286;10.434;2023-05-23T06:40:54;101033.06;;;14.90;99.17
73558;BME280;61829;53.286;10.434;2023-05-23T06:43:20;101038.50;;;14.90;99.55
73558;BME280;61829;53.286;10.434;2023-05-23T06:45:46;101036.81;;;14.89;98.84
73558;BME280;61829;53.286;10.434;2023-05-23T06:48:15;101036.59;;;14.90;99.12
73558;BME280;61829;53.286;10.434;2023-05-23T06:50:40;101032.00;;;14.91;99.17
73558;BME280;61829;53.286;10.434;2023-05-23T06:53:06;101028.25;;;14.92;99.16
73558;BME280;61829;53.286;10.434;2023-05-23T06:55:32;101031.41;;;14.95;99.34
73558;BME280;61829;53.286;10.434;2023-05-23T07:01:08;101034.31;;;15.00;99.69
73558;BME280;61829;53.286;10.434;2023-05-23T07:03:35;101036.63;;;15.03;99.37
73558;BME280;61829;53.286;10.434;2023-05-23T07:06:06;101034.50;;;15.05;99.45
73558;BME280;61829;53.286;10.434;2023-05-23T07:08:32;101043.09;;;15.09;99.09
73558;BME280;61829;53.286;10.434;2023-05-23T07:10:58;101038.06;;;15.13;98.93
73558;BME280;61829;53.286;10.434;2023-05-23T07:13:24;101036.81;;;15.15;99.02
73558;BME280;61829;53.286;10.434;2023-05-23T07:15:50;101035.53;;;15.11;98.85
73558;BME280;61829;53.286;10.434;2023-05-23T07:18:16;101046.41;;;15.11;99.36
73558;BME280;61829;53.286;10.434;2023-05-23T07:20:41;101045.38;;;15.12;99.41
73558;BME280;61829;53.286;10.434;2023-05-23T07:23:07;101043.50;;;15.13;99.25
73558;BME280;61829;53.286;10.434;2023-05-23T07:25:33;101045.81;;;15.09;99.35
73558;BME280;61829;53.286;10.434;2023-05-23T07:27:59;101049.13;;;15.11;99.54
73558;BME280;61829;53.286;10.434;2023-05-23T07:30:25;101046.22;;;15.13;100.00
73558;BME280;61829;53.286;10.434;2023-05-23T07:32:51;101043.50;;;15.13;100.00
73558;BME280;61829;53.286;10.434;2023-05-23T07:35:17;101050.59;;;15.14;100.00
73558;BME280;61829;53.286;10.434;2023-05-23T07:37:43;101047.69;;;15.15;100.00
73558;BME280;61829;53.286;10.434;2023-05-23T07:40:09;101043.50;;;15.13;99.81
73558;BME280;61829;53.286;10.434;2023-05-23T07:42:36;101052.25;;;15.08;99.90
73558;BME280;61829;53.286;10.434;2023-05-23T07:45:02;101049.13;;;15.04;100.00
73558;BME280;61829;53.286;10.434;2023-05-23T07:47:28;101051.22;;;15.02;100.00
73558;BME280;61829;53.286;10.434;2023-05-23T07:49:54;101050.38;;;15.02;100.00
73558;BME280;61829;53.286;10.434;2023-05-23T07:52:20;101058.94;;;15.05;100.00
73558;BME280;61829;53.286;10.434;2023-05-23T07:54:46;101052.69;;;15.05;100.00
73558;BME280;61829;53.286;10.434;2023-05-23T07:57:11;101054.56;;;15.04;100.00
73558;BME280;61829;53.286;10.434;2023-05-23T07:59:39;101063.53;;;15.05;100.00
73558;BME280;61829;53.286;10.434;2023-05-23T08:02:05;101055.19;;;15.07;100.00
73558;BME280;61829;53.286;10.434;2023-05-23T08:04:31;101055.19;;;15.07;100.00
73558;BME280;61829;53.286;10.434;2023-05-23T08:06:58;101055.19;;;15.07;100.00
73558;BME280;61829;53.286;10.434;2023-05-23T08:09:25;101057.47;;;15.03;100.00
73558;BME280;61829;53.286;10.434;2023-05-23T08:11:52;101062.91;;;15.03;100.00
73558;BME280;61829;53.286;10.434;2023-05-23T08:14:17;101065.44;;;14.98;100.00
73558;BME280;61829;53.286;10.434;2023-05-23T08:16:43;101066.44;;;14.97;100.00
73558;BME280;61829;53.286;10.434;2023-05-23T08:19:09;101076.28;;;14.98;100.00
73558;BME280;61829;53.286;10.434;2023-05-23T08:21:36;101070.84;;;14.98;100.00
73558;BME280;61829;53.286;10.434;2023-05-23T08:24:01;101073.13;;;14.94;100.00
73558;BME280;61829;53.286;10.434;2023-05-23T08:26:29;101084.22;;;14.86;100.00
73558;BME280;61829;53.286;10.434;2023-05-23T08:29:02;101082.28;;;14.80;100.00
73558;BME280;61829;53.286;10.434;2023-05-23T08:31:29;101092.09;;;14.74;100.00
73558;BME280;61829;53.286;10.434;2023-05-23T08:33:56;101096.28;;;14.70;100.00
73558;BME280;61829;53.286;10.434;2023-05-23T08:36:22;101101.06;;;14.68;100.00
73558;BME280;61829;53.286;10.434;2023-05-23T08:38:49;101102.06;;;14.54;100.00
73558;BME280;61829;53.286;10.434;2023-05-23T08:41:25;101112.66;;;14.42;100.00
73558;BME280;61829;53.286;10.434;2023-05-23T08:43:53;101115.53;;;14.41;99.37
73558;BME280;61829;53.286;10.434;2023-05-23T08:46:21;101119.94;;;14.42;99.23
73558;BME280;61829;53.286;10.434;2023-05-23T08:48:52;101122.00;;;14.40;99.68
73558;BME280;61829;53.286;10.434;2023-05-23T08:51:25;101126.38;;;14.41;100.00
73558;BME280;61829;53.286;10.434;2023-05-23T08:53:52;101136.22;;;14.42;100.00
73558;BME280;61829;53.286;10.434;2023-05-23T08:56:19;101131.44;;;14.44;99.56
73558;BME280;61829;53.286;10.434;2023-05-23T08:58:45;101135.00;;;14.51;99.92
73558;BME280;61829;53.286;10.434;2023-05-23T09:01:12;101138.63;;;14.65;100.00
73558;BME280;61829;53.286;10.434;2023-05-23T09:03:39;101144.69;;;14.73;96.89
73558;BME280;61829;53.286;10.434;2023-05-23T09:06:08;101135.31;;;14.82;97.14
73558;BME280;61829;53.286;10.434;2023-05-23T09:08:34;101146.63;;;14.93;95.93
73558;BME280;61829;53.286;10.434;2023-05-23T09:11:01;101144.75;;;15.00;95.69
73558;BME280;61829;53.286;10.434;2023-05-23T09:13:30;101147.03;;;14.90;96.04
73558;BME280;61829;53.286;10.434;2023-05-23T09:15:56;101156.00;;;14.90;95.23
73558;BME280;61829;53.286;10.434;2023-05-23T09:18:25;101162.50;;;14.96;94.61
73558;BME280;61829;53.286;10.434;2023-05-23T09:20:52;101173.75;;;14.99;93.92
73558;BME280;61829;53.286;10.434;2023-05-23T09:23:18;101177.94;;;15.02;93.85
73558;BME280;61829;53.286;10.434;2023-05-23T09:25:45;101185.66;;;15.05;95.19
73558;BME280;61829;53.286;10.434;2023-05-23T09:28:11;101180.47;;;15.03;94.77
73558;BME280;61829;53.286;10.434;2023-05-23T09:30:37;101185.66;;;14.98;94.26
73558;BME280;61829;53.286;10.434;2023-05-23T09:33:03;101185.84;;;14.90;93.97
73558;BME280;61829;53.286;10.434;2023-05-23T09:35:30;101180.00;;;14.87;94.98
73558;BME280;61829;53.286;10.434;2023-05-23T09:37:57;101193.13;;;14.83;95.68
73558;BME280;61829;53.286;10.434;2023-05-23T09:40:30;101190.41;;;14.76;95.23
73558;BME280;61829;53.286;10.434;2023-05-23T09:43:01;101196.22;;;14.73;94.15
73558;BME280;61829;53.286;10.434;2023-05-23T09:45:30;101200.41;;;14.69;93.64
73558;BME280;61829;53.286;10.434;2023-05-23T09:47:56;101205.84;;;14.69;93.39
73558;BME280;61829;53.286;10.434;2023-05-23T09:50:28;101205.19;;;14.67;92.41
73558;BME280;61829;53.286;10.434;2023-05-23T09:52:55;101210.81;;;14.66;93.07
73558;BME280;61829;53.286;10.434;2023-05-23T09:55:22;101213.50;;;14.59;90.50
73558;BME280;61829;53.286;10.434;2023-05-23T09:57:52;101217.25;;;14.58;91.26
73558;BME280;61829;53.286;10.434;2023-05-23T10:00:20;101222.69;;;14.58;91.59
73558;BME280;61829;53.286;10.434;2023-05-23T10:05:46;101218.19;;;14.44;91.75
73558;BME280;61829;53.286;10.434;2023-05-23T10:08:18;101232.78;;;14.43;93.43
73558;BME280;61829;53.286;10.434;2023-05-23T10:13:26;101237.03;;;14.24;96.25
73558;BME280;61829;53.286;10.434;2023-05-23T10:16:18;101245.94;;;14.11;95.93
73558;BME280;61829;53.286;10.434;2023-05-23T10:18:43;101255.84;;;13.97;96.96
73558;BME280;61829;53.286;10.434;2023-05-23T10:21:24;101253.91;;;13.91;96.98
73558;BME280;61829;53.286;10.434;2023-05-23T10:23:58;101264.47;;;13.79;98.01
73558;BME280;61829;53.286;10.434;2023-05-23T10:26:26;101268.53;;;13.68;98.07
73558;BME280;61829;53.286;10.434;2023-05-23T10:28:52;101273.22;;;13.60;99.89
73558;BME280;61829;53.286;10.434;2023-05-23T10:31:19;101268.59;;;13.54;99.75
73558;BME280;61829;53.286;10.434;2023-05-23T10:33:51;101278.13;;;13.50;100.00
73558;BME280;61829;53.286;10.434;2023-05-23T10:36:22;101285.41;;;13.49;99.92
73558;BME280;61829;53.286;10.434;2023-05-23T10:39:11;101283.28;;;13.44;100.00
73558;BME280;61829;53.286;10.434;2023-05-23T10:41:58;101295.47;;;13.34;99.23
73558;BME280;61829;53.286;10.434;2023-05-23T10:44:30;101294.06;;;13.23;100.00
73558;BME280;61829;53.286;10.434;2023-05-23T10:46:58;101299.59;;;13.15;100.00
73558;BME280;61829;53.286;10.434;2023-05-23T10:49:42;101313.50;;;13.12;100.00
73558;BME280;61829;53.286;10.434;2023-05-23T10:52:11;101315.81;;;13.15;100.00
73558;BME280;61829;53.286;10.434;2023-05-23T10:54:46;101320.84;;;13.18;100.00
73558;BME280;61829;53.286;10.434;2023-05-23T10:57:18;101323.28;;;13.13;100.00
73558;BME280;61829;53.286;10.434;2023-05-23T10:59:45;101326.38;;;13.10;100.00
73558;BME280;61829;53.286;10.434;2023-05-23T11:02:17;101328.25;;;13.09;100.00
73558;BME280;61829;53.286;10.434;2023-05-23T11:04:43;101333.28;;;13.12;100.00
73558;BME280;61829;53.286;10.434;2023-05-23T11:07:29;101338.03;;;13.10;100.00
73558;BME280;61829;53.286;10.434;2023-05-23T11:10:09;101341.94;;;13.08;100.00
73558;BME280;61829;53.286;10.434;2023-05-23T11:12:38;101341.94;;;13.08;100.00
73558;BME280;61829;53.286;10.434;2023-05-23T11:17:53;101344.56;;;13.01;100.00
73558;BME280;61829;53.286;10.434;2023-05-23T11:20:21;101344.03;;;13.06;100.00
73558;BME280;61829;53.286;10.434;2023-05-23T11:22:53;101342.59;;;13.10;100.00
73558;BME280;61829;53.286;10.434;2023-05-23T11:25:20;101355.59;;;12.99;99.23
73558;BME280;61829;53.286;10.434;2023-05-23T11:27:48;101348.69;;;12.82;98.79
73558;BME280;61829;53.286;10.434;2023-05-23T11:30:16;101359.88;;;12.79;100.00
73558;BME280;61829;53.286;10.434;2023-05-23T11:32:50;101362.78;;;12.77;100.00
73558;BME280;61829;53.286;10.434;2023-05-23T11:35:15;101369.88;;;12.78;99.78
73558;BME280;61829;53.286;10.434;2023-05-23T11:37:42;101364.66;;;12.77;98.02
73558;BME280;61829;53.286;10.434;2023-05-23T11:40:32;101367.16;;;12.64;97.30
73558;BME280;61829;53.286;10.434;2023-05-23T11:43:00;101369.19;;;12.62;98.39
73558;BME280;61829;53.286;10.434;2023-05-23T11:45:28;101379.63;;;12.65;97.53
73558;BME280;61829;53.286;10.434;2023-05-23T11:47:54;101383.66;;;12.69;97.54
73558;BME280;61829;53.286;10.434;2023-05-23T11:50:20;101388.34;;;12.75;97.80
73558;BME280;61829;53.286;10.434;2023-05-23T11:52:47;101390.50;;;12.79;96.51
73558;BME280;61829;53.286;10.434;2023-05-23T11:55:17;101399.44;;;12.80;95.84
73558;BME280;61829;53.286;10.434;2023-05-23T11:57:44;101393.38;;;12.78;96.52
73558;BME280;61829;53.286;10.434;2023-05-23T12:00:11;101399.91;;;12.84;95.99
73558;BME280;61829;53.286;10.434;2023-05-23T12:02:39;101394.94;;;12.87;96.11
73558;BME280;61829;53.286;10.434;2023-05-23T12:05:08;101389.16;;;12.90;95.66
73558;BME280;61829;53.286;10.434;2023-05-23T12:07:35;101395.16;;;13.00;95.66
73558;BME280;61829;53.286;10.434;2023-05-23T12:10:03;101400.09;;;13.12;93.93
73558;BME280;61829;53.286;10.434;2023-05-23T12:12:30;101402.25;;;13.16;92.05
73558;BME280;61829;53.286;10.434;2023-05-23T12:14:56;101405.97;;;13.30;91.13
73558;BME280;61829;53.286;10.434;2023-05-23T12:17:23;101406.34;;;13.42;89.91
73558;BME280;61829;53.286;10.434;2023-05-23T12:19:48;101399.34;;;13.33;86.77
73558;BME280;61829;53.286;10.434;2023-05-23T12:22:21;101401.06;;;13.55;88.73
73558;BME280;61829;53.286;10.434;2023-05-23T12:24:52;101397.38;;;13.78;88.15
73558;BME280;61829;53.286;10.434;2023-05-23T12:27:19;101413.44;;;14.01;88.85
73558;BME280;61829;53.286;10.434;2023-05-23T12:29:49;101409.06;;;14.21;87.98
73558;BME280;61829;53.286;10.434;2023-05-23T12:32:18;101407.81;;;14.45;85.51
73558;BME280;61829;53.286;10.434;2023-05-23T12:34:44;101412.63;;;14.71;83.49
73558;BME280;61829;53.286;10.434;2023-05-23T12:37:12;101407.47;;;14.83;81.67
73558;BME280;61829;53.286;10.434;2023-05-23T12:39:42;101418.16;;;14.85;78.51
73558;BME280;61829;53.286;10.434;2023-05-23T12:42:09;101405.91;;;14.95;77.58
73558;BME280;61829;53.286;10.434;2023-05-23T12:44:35;101415.13;;;15.01;74.03
73558;BME280;61829;53.286;10.434;2023-05-23T12:47:04;101421.34;;;14.95;73.63
73558;BME280;61829;53.286;10.434;2023-05-23T12:49:30;101408.25;;;15.05;74.67
73558;BME280;61829;53.286;10.434;2023-05-23T12:51:56;101405.13;;;15.08;72.72
73558;BME280;61829;53.286;10.434;2023-05-23T12:54:23;101421.25;;;15.16;71.92
73558;BME280;61829;53.286;10.434;2023-05-23T12:56:49;101414.16;;;15.15;72.69
73558;BME280;61829;53.286;10.434;2023-05-23T12:59:15;101421.75;;;15.26;72.01
73558;BME280;61829;53.286;10.434;2023-05-23T13:01:41;101433.66;;;15.32;71.81
73558;BME280;61829;53.286;10.434;2023-05-23T13:04:07;101427.34;;;15.18;71.02